Time;durP1;ratioP1;P1;durP2;ratioP2;P2;SDS_P1;SDS_P2;PMS_P1;PMS_P2;Temp;Humidity;BMP_temperature;BMP_pressure;BME280_temperature;BME280_humidity;BME280_pressure;Samples;Min_cycle;Max_cycle;Signal;HPM_P1;HPM_P2
2022/03/07 00:00:12;;;;;;;;;;;1.70;98.30;;;;;;4946663;28;19926;-86
2022/03/07 00:02:39;;;;;;;;;;;1.70;98.30;;;;;;4950198;28;19962;-82
2022/03/07 00:05:06;;;;;;;;;;;1.70;98.20;;;;;;4949829;28;20485;-85
2022/03/07 00:07:33;;;;;;;;;;;1.60;98.30;;;;;;4949431;28;19926;-83
2022/03/07 00:10:00;;;;;;;;;;;1.70;98.20;;;;;;4946970;28;19930;-83
2022/03/07 00:12:27;;;;;;;;;;;1.60;98.20;;;;;;4946144;28;19933;-83
2022/03/07 00:14:54;;;;;;;;;;;1.60;98.20;;;;;;4961737;28;19930;-82
2022/03/07 00:17:23;;;;;;;;;;;1.60;98.30;;;;;;4964052;28;19997;-84
2022/03/07 00:19:50;;;;;;;;;;;1.60;98.30;;;;;;4947224;28;20327;-83
2022/03/07 00:22:16;;;;;;;;;;;1.60;98.30;;;;;;4948923;28;19997;-83
2022/03/07 00:24:43;;;;;;;;;;;1.60;98.30;;;;;;4950934;28;19946;-83
2022/03/07 00:27:10;;;;;;;;;;;1.60;98.30;;;;;;4947663;28;19934;-83
2022/03/07 00:29:37;;;;;;;;;;;1.60;98.30;;;;;;4946020;28;19930;-85
2022/03/07 00:32:05;;;;;;;;;;;1.60;98.30;;;;;;4946674;28;20028;-84
2022/03/07 00:34:33;;;;;;;;;;;1.60;98.40;;;;;;4966778;28;19957;-85
2022/03/07 00:37:00;;;;;;;;;;;1.60;98.40;;;;;;4963198;28;20520;-83
2022/03/07 00:39:27;;;;;;;;;;;1.60;98.30;;;;;;4949856;28;19927;-83
2022/03/07 00:41:54;;;;;;;;;;;1.60;98.30;;;;;;4949524;28;19951;-84
2022/03/07 00:44:21;;;;;;;;;;;1.60;98.40;;;;;;4963023;28;19974;-83
2022/03/07 00:46:48;;;;;;;;;;;1.50;98.30;;;;;;4962325;28;20029;-83
2022/03/07 00:49:14;;;;;;;;;;;1.50;98.30;;;;;;4965525;28;19941;-85
2022/03/07 00:51:43;;;;;;;;;;;1.50;98.30;;;;;;4964426;28;19934;-82
2022/03/07 00:54:10;;;;;;;;;;;1.50;98.30;;;;;;4955089;28;19934;-82
2022/03/07 00:56:38;;;;;;;;;;;1.50;98.20;;;;;;4946185;28;19953;-84
2022/03/07 00:59:05;;;;;;;;;;;1.50;98.30;;;;;;4948502;28;19926;-83
2022/03/07 01:01:32;;;;;;;;;;;1.50;98.30;;;;;;4946805;28;20387;-83
2022/03/07 01:03:59;;;;;;;;;;;1.50;98.30;;;;;;4950582;28;19937;-83
2022/03/07 01:06:26;;;;;;;;;;;1.50;98.30;;;;;;4964983;28;20005;-83
2022/03/07 01:08:54;;;;;;;;;;;1.50;98.20;;;;;;4947664;28;19969;-84
2022/03/07 01:11:21;;;;;;;;;;;1.40;98.20;;;;;;4947416;28;20385;-84
2022/03/07 01:13:48;;;;;;;;;;;1.50;98.20;;;;;;4950289;28;19949;-84
2022/03/07 01:16:15;;;;;;;;;;;1.40;98.20;;;;;;4947759;28;19938;-83
2022/03/07 01:18:43;;;;;;;;;;;1.40;98.20;;;;;;4966061;28;20030;-83
2022/03/07 01:21:10;;;;;;;;;;;1.50;98.20;;;;;;4948884;28;19957;-85
2022/03/07 01:23:37;;;;;;;;;;;1.40;98.20;;;;;;4950956;28;20370;-83
2022/03/07 01:26:05;;;;;;;;;;;1.40;98.00;;;;;;4947331;28;20665;-83
2022/03/07 01:28:32;;;;;;;;;;;1.40;98.20;;;;;;4963736;28;20022;-83
2022/03/07 01:30:59;;;;;;;;;;;1.40;98.10;;;;;;4948052;28;19931;-82
2022/03/07 01:33:26;;;;;;;;;;;1.40;98.10;;;;;;4947119;28;19934;-83
2022/03/07 01:35:53;;;;;;;;;;;1.40;98.10;;;;;;4947031;28;20577;-83
2022/03/07 01:38:20;;;;;;;;;;;1.40;98.40;;;;;;4951618;28;19926;-83
2022/03/07 01:40:47;;;;;;;;;;;1.40;98.00;;;;;;4947430;28;19927;-83
2022/03/07 01:43:15;;;;;;;;;;;1.40;98.10;;;;;;4948695;28;19984;-83
2022/03/07 01:45:42;;;;;;;;;;;1.40;98.10;;;;;;4953674;28;20049;-83
2022/03/07 01:48:09;;;;;;;;;;;1.40;98.20;;;;;;4947453;28;19926;-83
2022/03/07 01:50:36;;;;;;;;;;;1.40;98.20;;;;;;4947648;28;19949;-83
2022/03/07 01:53:05;;;;;;;;;;;1.30;98.10;;;;;;4961694;28;19953;-83
2022/03/07 01:55:32;;;;;;;;;;;1.30;98.40;;;;;;4945967;28;19938;-83
2022/03/07 01:58:02;;;;;;;;;;;1.30;98.10;;;;;;4950690;28;19934;-84
2022/03/07 02:00:30;;;;;;;;;;;1.30;98.20;;;;;;4948846;28;19941;-83
2022/03/07 02:02:57;;;;;;;;;;;1.30;98.10;;;;;;4943617;28;20017;-83
2022/03/07 02:05:46;;;;;;;;;;;1.30;98.10;;;;;;4960833;28;20049;-83
2022/03/07 02:08:26;;;;;;;;;;;1.30;98.20;;;;;;4947181;28;20029;-83
2022/03/07 02:10:59;;;;;;;;;;;1.30;98.10;;;;;;4962677;28;19927;-83
2022/03/07 02:13:29;;;;;;;;;;;1.30;98.10;;;;;;4965296;28;19934;-83
2022/03/07 02:16:05;;;;;;;;;;;1.30;98.10;;;;;;4952105;28;19926;-83
2022/03/07 02:18:33;;;;;;;;;;;1.30;98.10;;;;;;4946055;28;19978;-82
2022/03/07 02:21:09;;;;;;;;;;;1.30;98.00;;;;;;4960974;28;19930;-83
2022/03/07 02:23:40;;;;;;;;;;;1.30;98.00;;;;;;4963426;28;19926;-83
2022/03/07 02:26:11;;;;;;;;;;;1.30;98.30;;;;;;4963489;28;19990;-83
2022/03/07 02:28:39;;;;;;;;;;;1.20;98.00;;;;;;4947833;28;19977;-83
2022/03/07 02:31:06;;;;;;;;;;;1.20;98.00;;;;;;4942919;28;19938;-83
2022/03/07 02:33:34;;;;;;;;;;;1.20;98.00;;;;;;4955906;28;19935;-83
2022/03/07 02:36:02;;;;;;;;;;;1.20;97.90;;;;;;4947673;28;19938;-83
2022/03/07 02:38:29;;;;;;;;;;;1.20;97.80;;;;;;4948554;28;19933;-83
2022/03/07 02:40:57;;;;;;;;;;;1.20;97.90;;;;;;4966284;28;19982;-83
2022/03/07 02:43:25;;;;;;;;;;;1.20;97.90;;;;;;4949728;28;19975;-83
2022/03/07 02:45:52;;;;;;;;;;;1.20;97.90;;;;;;4949161;28;19970;-83
2022/03/07 02:48:19;;;;;;;;;;;1.20;97.90;;;;;;4951696;28;19941;-83
2022/03/07 02:50:46;;;;;;;;;;;1.20;98.00;;;;;;4951163;28;20309;-83
2022/03/07 02:53:13;;;;;;;;;;;1.10;97.80;;;;;;4967842;28;19935;-83
2022/03/07 02:55:40;;;;;;;;;;;1.20;97.90;;;;;;4964816;28;19933;-82
2022/03/07 02:58:09;;;;;;;;;;;1.20;98.00;;;;;;4953243;28;19934;-82
2022/03/07 03:00:36;;;;;;;;;;;1.10;97.90;;;;;;4953726;28;20433;-85
2022/03/07 03:03:03;;;;;;;;;;;1.10;98.00;;;;;;4952083;28;19941;-83
2022/03/07 03:05:30;;;;;;;;;;;1.10;97.90;;;;;;4956260;28;19926;-83
2022/03/07 03:07:57;;;;;;;;;;;1.10;97.90;;;;;;4956113;28;19926;-83
2022/03/07 03:10:24;;;;;;;;;;;1.10;97.80;;;;;;4954387;28;19941;-83
2022/03/07 03:12:51;;;;;;;;;;;1.10;97.80;;;;;;4949949;28;19927;-83
2022/03/07 03:15:19;;;;;;;;;;;1.10;97.80;;;;;;4951188;28;19934;-83
2022/03/07 03:17:47;;;;;;;;;;;1.10;97.70;;;;;;4954256;28;20010;-83
2022/03/07 03:20:15;;;;;;;;;;;1.10;97.80;;;;;;4953508;28;19930;-83
2022/03/07 03:22:43;;;;;;;;;;;1.10;97.80;;;;;;4953799;28;19942;-83
2022/03/07 03:25:10;;;;;;;;;;;1.10;97.80;;;;;;4948896;28;19933;-83
2022/03/07 03:27:37;;;;;;;;;;;1.00;97.70;;;;;;4969210;28;19926;-83
2022/03/07 03:30:05;;;;;;;;;;;1.00;97.70;;;;;;4967358;28;20394;-83
2022/03/07 03:32:34;;;;;;;;;;;1.00;97.70;;;;;;4947838;28;20310;-82
2022/03/07 03:35:01;;;;;;;;;;;1.00;97.80;;;;;;4953307;28;20021;-83
2022/03/07 03:37:27;;;;;;;;;;;1.00;97.70;;;;;;4948567;28;19926;-82
2022/03/07 03:39:54;;;;;;;;;;;1.00;97.80;;;;;;4949671;28;19930;-82
2022/03/07 03:42:22;;;;;;;;;;;1.00;97.70;;;;;;4951034;28;20025;-83
2022/03/07 03:44:49;;;;;;;;;;;1.00;97.70;;;;;;4969847;28;19933;-83
2022/03/07 03:47:16;;;;;;;;;;;1.00;97.80;;;;;;4970415;28;19927;-83
2022/03/07 03:49:44;;;;;;;;;;;0.90;97.70;;;;;;4953924;28;20429;-83
2022/03/07 03:52:11;;;;;;;;;;;0.90;97.70;;;;;;4951439;28;19930;-82
2022/03/07 03:54:38;;;;;;;;;;;0.90;97.70;;;;;;4953128;28;20021;-83
2022/03/07 03:57:05;;;;;;;;;;;0.90;97.70;;;;;;4953190;28;19930;-83
2022/03/07 03:59:33;;;;;;;;;;;0.90;97.70;;;;;;4953844;28;19930;-82
2022/03/07 04:02:00;;;;;;;;;;;0.90;97.70;;;;;;4953337;28;19927;-83
2022/03/07 04:04:27;;;;;;;;;;;0.90;97.80;;;;;;4950599;28;19942;-83
2022/03/07 04:06:55;;;;;;;;;;;0.80;97.80;;;;;;4954808;28;20347;-82
2022/03/07 04:09:22;;;;;;;;;;;0.90;97.70;;;;;;4954303;28;19927;-83
2022/03/07 04:11:49;;;;;;;;;;;0.80;97.60;;;;;;4954309;28;20025;-83
2022/03/07 04:14:16;;;;;;;;;;;0.80;97.60;;;;;;4954304;28;20416;-82
2022/03/07 04:16:43;;;;;;;;;;;0.80;97.60;;;;;;4955843;28;19950;-83
2022/03/07 04:19:11;;;;;;;;;;;0.80;97.70;;;;;;4954046;28;19941;-82
2022/03/07 04:21:39;;;;;;;;;;;0.80;97.60;;;;;;4955454;28;19927;-82
2022/03/07 04:24:09;;;;;;;;;;;0.80;97.60;;;;;;4963184;28;20582;-83
2022/03/07 04:26:36;;;;;;;;;;;0.80;97.70;;;;;;4953776;28;19930;-82
2022/03/07 04:29:05;;;;;;;;;;;0.70;97.60;;;;;;4954340;28;19927;-82
2022/03/07 04:31:32;;;;;;;;;;;0.70;97.60;;;;;;4947133;28;19942;-83
2022/03/07 04:33:59;;;;;;;;;;;0.70;97.60;;;;;;4950288;28;19926;-82
2022/03/07 04:36:26;;;;;;;;;;;0.70;97.60;;;;;;4947922;28;19974;-82
2022/03/07 04:38:53;;;;;;;;;;;0.70;97.60;;;;;;4949064;28;19969;-82
2022/03/07 04:41:21;;;;;;;;;;;0.70;97.70;;;;;;4954194;28;20337;-83
2022/03/07 04:43:48;;;;;;;;;;;0.70;97.70;;;;;;4955024;28;20313;-83
2022/03/07 04:46:15;;;;;;;;;;;0.70;97.70;;;;;;4958920;28;19985;-83
2022/03/07 04:48:42;;;;;;;;;;;0.70;97.70;;;;;;4962188;28;20093;-85
2022/03/07 04:51:09;;;;;;;;;;;0.70;97.60;;;;;;4960209;28;19939;-82
2022/03/07 04:53:37;;;;;;;;;;;0.60;97.60;;;;;;4953234;28;19989;-82
2022/03/07 04:56:04;;;;;;;;;;;0.60;97.70;;;;;;4949637;28;19974;-82
2022/03/07 04:58:32;;;;;;;;;;;0.60;97.60;;;;;;4957438;28;19930;-84
2022/03/07 05:01:00;;;;;;;;;;;0.60;97.60;;;;;;4962798;28;19934;-82
2022/03/07 05:03:30;;;;;;;;;;;0.60;97.60;;;;;;4970102;28;20457;-83
2022/03/07 05:05:57;;;;;;;;;;;0.60;97.60;;;;;;4952510;28;19935;-82
2022/03/07 05:08:24;;;;;;;;;;;0.60;97.70;;;;;;4964971;28;19933;-81
2022/03/07 05:10:51;;;;;;;;;;;0.60;97.90;;;;;;4949136;28;19941;-81
2022/03/07 05:13:18;;;;;;;;;;;0.60;97.60;;;;;;4944439;28;19927;-81
2022/03/07 05:15:46;;;;;;;;;;;0.50;97.60;;;;;;4951539;28;20458;-81
2022/03/07 05:18:14;;;;;;;;;;;0.50;97.60;;;;;;4945315;28;19930;-81
2022/03/07 05:20:41;;;;;;;;;;;0.50;97.60;;;;;;4963596;28;19934;-81
2022/03/07 05:23:08;;;;;;;;;;;0.50;97.60;;;;;;4948185;28;20295;-81
2022/03/07 05:25:38;;;;;;;;;;;0.50;97.60;;;;;;4960643;28;19926;-81
2022/03/07 05:28:05;;;;;;;;;;;0.50;97.60;;;;;;4945268;28;20017;-81
2022/03/07 05:30:32;;;;;;;;;;;0.40;97.60;;;;;;4963701;28;19927;-80
2022/03/07 05:33:00;;;;;;;;;;;0.40;97.60;;;;;;4947950;28;19926;-81
2022/03/07 05:35:29;;;;;;;;;;;0.40;97.60;;;;;;4954031;28;19945;-80
2022/03/07 05:37:56;;;;;;;;;;;0.40;97.60;;;;;;4946575;28;20406;-81
2022/03/07 05:40:23;;;;;;;;;;;0.40;97.60;;;;;;4952609;28;19934;-81
2022/03/07 05:42:50;;;;;;;;;;;0.40;97.60;;;;;;4949426;28;19987;-82
2022/03/07 05:45:17;;;;;;;;;;;0.40;97.50;;;;;;4969761;28;19946;-81
2022/03/07 05:47:44;;;;;;;;;;;0.30;97.50;;;;;;4965492;28;19941;-80
2022/03/07 05:50:16;;;;;;;;;;;0.30;97.50;;;;;;4962945;28;19934;-82
2022/03/07 05:52:50;;;;;;;;;;;0.30;97.50;;;;;;4973696;28;19927;-82
2022/03/07 05:55:18;;;;;;;;;;;0.30;97.50;;;;;;4956352;28;19926;-81
2022/03/07 05:57:50;;;;;;;;;;;0.30;97.50;;;;;;4955394;28;20004;-80
2022/03/07 06:00:17;;;;;;;;;;;0.30;97.50;;;;;;4962258;28;19917;-82
2022/03/07 06:02:56;;;;;;;;;;;0.30;97.50;;;;;;4965151;28;19942;-81
2022/03/07 06:05:25;;;;;;;;;;;0.30;97.50;;;;;;4962423;28;20363;-82
2022/03/07 06:07:53;;;;;;;;;;;0.20;97.40;;;;;;4962188;28;20306;-79
2022/03/07 06:10:20;;;;;;;;;;;0.30;97.50;;;;;;4968199;28;19985;-82
2022/03/07 06:12:47;;;;;;;;;;;0.20;97.70;;;;;;4969257;28;19973;-81
2022/03/07 06:15:14;;;;;;;;;;;0.30;97.50;;;;;;4954005;28;19926;-81
2022/03/07 06:17:49;;;;;;;;;;;0.10;97.40;;;;;;4956647;28;20294;-81
2022/03/07 06:20:18;;;;;;;;;;;0.20;97.50;;;;;;4957967;28;19926;-83
2022/03/07 06:28:44;;;;;;;;;;;0.10;97.50;;;;;;4963293;28;20021;-83
2022/03/07 06:37:28;;;;;;;;;;;0.10;97.40;;;;;;5401267;23;19937;-81
2022/03/07 06:49:37;;;;;;;;;;;0.10;97.40;;;;;;5497214;22;19933;-81
2022/03/07 06:54:39;;;;;;;;;;;0.00;97.40;;;;;;5963612;22;19926;-82
2022/03/07 08:15:05;;;;;;;;;;;-0.10;97.30;;;;;;5783178;23;19973;-80
2022/03/07 08:17:32;;;;;;;;;;;-0.10;97.20;;;;;;4975619;28;19927;-81
2022/03/07 09:07:08;;;;;;;;;;;-0.10;97.20;;;;;;5401779;23;19926;-81
2022/03/07 09:09:36;;;;;;;;;;;-0.20;97.10;;;;;;5000738;28;19930;-81
2022/03/07 09:12:03;;;;;;;;;;;-0.20;97.10;;;;;;5001840;28;19930;-81
2022/03/07 09:14:31;;;;;;;;;;;-0.20;97.20;;;;;;4999039;28;19926;-80
2022/03/07 09:16:58;;;;;;;;;;;-0.20;97.20;;;;;;5002256;28;19932;-81
2022/03/07 09:28:09;;;;;;;;;;;-0.20;97.10;;;;;;5507883;22;19944;-81
2022/03/07 09:30:36;;;;;;;;;;;-0.20;97.00;;;;;;5000076;28;19926;-81
2022/03/07 09:33:05;;;;;;;;;;;-0.20;97.10;;;;;;4992453;28;20312;-81
2022/03/07 09:49:53;;;;;;;;;;;-0.20;97.10;;;;;;4955716;28;20706;-80
2022/03/07 09:52:56;;;;;;;;;;;-0.20;97.10;;;;;;4950763;28;19962;-80
2022/03/07 09:59:09;;;;;;;;;;;-0.10;97.10;;;;;;5007178;28;19933;-80
2022/03/07 10:12:00;;;;;;;;;;;-0.10;97.00;;;;;;4994518;28;19936;-82
2022/03/07 10:20:50;;;;;;;;;;;-0.10;97.00;;;;;;5001307;28;19944;-81
2022/03/07 10:23:27;;;;;;;;;;;-0.10;97.10;;;;;;4988566;28;19948;-81
2022/03/07 10:26:12;;;;;;;;;;;0.00;97.10;;;;;;5000933;28;19957;-81
2022/03/07 10:29:02;;;;;;;;;;;0.00;97.10;;;;;;4999507;28;19925;-82
2022/03/07 10:31:44;;;;;;;;;;;0.00;97.00;;;;;;4987092;28;19926;-81
2022/03/07 10:34:28;;;;;;;;;;;0.00;97.00;;;;;;5004118;28;19936;-81
2022/03/07 10:42:44;;;;;;;;;;;0.00;97.00;;;;;;4995217;28;19925;-81
2022/03/07 10:45:13;;;;;;;;;;;0.00;97.10;;;;;;4989535;28;19934;-80
2022/03/07 10:47:40;;;;;;;;;;;0.10;97.00;;;;;;4984638;28;19961;-80
2022/03/07 10:50:08;;;;;;;;;;;0.10;96.80;;;;;;4990972;28;19926;-80
2022/03/07 10:52:37;;;;;;;;;;;0.10;97.00;;;;;;4983466;28;19937;-80
2022/03/07 10:55:05;;;;;;;;;;;0.10;97.00;;;;;;4991612;28;19926;-80
2022/03/07 10:57:34;;;;;;;;;;;0.10;96.90;;;;;;4992094;28;19994;-80
2022/03/07 11:00:04;;;;;;;;;;;0.10;96.90;;;;;;4978815;28;19987;-80
2022/03/07 11:02:37;;;;;;;;;;;0.10;96.90;;;;;;4985139;28;19936;-80
2022/03/07 11:05:07;;;;;;;;;;;0.20;97.30;;;;;;4995508;28;20180;-80
2022/03/07 11:07:34;;;;;;;;;;;0.20;96.70;;;;;;4992260;28;20341;-80
2022/03/07 11:10:01;;;;;;;;;;;0.20;96.90;;;;;;4992859;28;19934;-79
2022/03/07 11:12:28;;;;;;;;;;;0.30;96.90;;;;;;4988946;28;19926;-80
2022/03/07 11:14:57;;;;;;;;;;;0.30;96.80;;;;;;4996790;28;20348;-80
2022/03/07 11:17:25;;;;;;;;;;;0.30;96.70;;;;;;4969626;28;20425;-80
2022/03/07 11:19:55;;;;;;;;;;;0.30;96.80;;;;;;4989124;28;19968;-80
2022/03/07 11:22:22;;;;;;;;;;;0.30;96.80;;;;;;4986879;28;19926;-80
2022/03/07 11:24:49;;;;;;;;;;;0.30;96.80;;;;;;4984928;28;19925;-80
2022/03/07 11:27:17;;;;;;;;;;;0.30;96.70;;;;;;4969822;28;19932;-80
2022/03/07 11:29:44;;;;;;;;;;;0.40;96.50;;;;;;4990548;28;19926;-80
2022/03/07 11:32:13;;;;;;;;;;;0.40;96.50;;;;;;4998674;28;19933;-80
2022/03/07 11:34:51;;;;;;;;;;;0.40;96.70;;;;;;4985102;28;19934;-80
2022/03/07 11:37:21;;;;;;;;;;;0.40;96.80;;;;;;4967831;28;19976;-80
2022/03/07 11:39:48;;;;;;;;;;;0.40;96.90;;;;;;4996116;28;20397;-80
2022/03/07 11:42:16;;;;;;;;;;;0.40;96.50;;;;;;4995376;28;20337;-80
2022/03/07 11:44:43;;;;;;;;;;;0.40;96.80;;;;;;4985572;28;19940;-80
2022/03/07 11:47:11;;;;;;;;;;;0.50;97.00;;;;;;4981576;28;19925;-80
2022/03/07 11:49:38;;;;;;;;;;;0.50;97.00;;;;;;4999375;28;19925;-80
2022/03/07 11:52:07;;;;;;;;;;;0.50;97.20;;;;;;4996569;28;19929;-80
2022/03/07 11:54:49;;;;;;;;;;;0.50;97.20;;;;;;4996307;28;20001;-80
2022/03/07 11:57:16;;;;;;;;;;;0.50;97.10;;;;;;4997776;28;19925;-80
2022/03/07 11:59:43;;;;;;;;;;;0.60;96.80;;;;;;4985978;28;20314;-80
2022/03/07 12:02:10;;;;;;;;;;;0.60;97.30;;;;;;4978735;28;20028;-81
2022/03/07 12:04:38;;;;;;;;;;;0.60;97.60;;;;;;4987775;28;20488;-80
2022/03/07 12:07:05;;;;;;;;;;;0.60;97.40;;;;;;4995621;28;19937;-80
2022/03/07 12:09:33;;;;;;;;;;;0.70;97.60;;;;;;4981506;28;19925;-79
2022/03/07 12:12:03;;;;;;;;;;;0.70;97.40;;;;;;4982274;28;19933;-80
2022/03/07 12:14:31;;;;;;;;;;;0.70;97.70;;;;;;4979609;28;20064;-79
2022/03/07 12:17:00;;;;;;;;;;;0.80;98.00;;;;;;4988847;28;20073;-80
2022/03/07 12:19:28;;;;;;;;;;;0.80;97.90;;;;;;4972228;28;20433;-80
2022/03/07 12:21:55;;;;;;;;;;;0.80;98.00;;;;;;4981664;28;19960;-80
2022/03/07 12:24:24;;;;;;;;;;;0.80;97.80;;;;;;4995981;28;20437;-80
2022/03/07 12:26:51;;;;;;;;;;;0.80;97.40;;;;;;4972716;28;19926;-79
2022/03/07 12:29:20;;;;;;;;;;;0.80;97.70;;;;;;4972152;28;19930;-80
2022/03/07 12:31:48;;;;;;;;;;;0.90;98.10;;;;;;4992623;28;21349;-80
2022/03/07 12:34:18;;;;;;;;;;;0.90;97.70;;;;;;4989137;28;19933;-80
2022/03/07 12:36:45;;;;;;;;;;;0.90;98.10;;;;;;4984993;28;19940;-80
2022/03/07 12:39:13;;;;;;;;;;;1.00;97.90;;;;;;4993939;28;19926;-80
2022/03/07 12:41:41;;;;;;;;;;;1.00;97.80;;;;;;5007525;28;19954;-80
2022/03/07 12:44:09;;;;;;;;;;;1.00;97.70;;;;;;5008976;28;19930;-80
2022/03/07 12:46:41;;;;;;;;;;;1.10;98.00;;;;;;4983751;28;19925;-80
2022/03/07 12:49:08;;;;;;;;;;;1.10;98.10;;;;;;4996344;28;19926;-80
2022/03/07 12:51:36;;;;;;;;;;;1.10;98.20;;;;;;4983848;28;19929;-81
2022/03/07 12:54:03;;;;;;;;;;;1.10;98.00;;;;;;4983308;28;20451;-82
2022/03/07 12:56:35;;;;;;;;;;;1.10;98.30;;;;;;4993633;28;19982;-80
2022/03/07 12:59:03;;;;;;;;;;;1.10;98.10;;;;;;4987731;28;19932;-80
2022/03/07 13:01:31;;;;;;;;;;;1.20;98.10;;;;;;4999386;28;19925;-81
2022/03/07 13:04:00;;;;;;;;;;;1.20;98.20;;;;;;4984736;28;19969;-81
2022/03/07 13:06:28;;;;;;;;;;;1.20;98.20;;;;;;4984745;28;19977;-80
2022/03/07 13:08:56;;;;;;;;;;;1.20;98.20;;;;;;4985296;28;19930;-80
2022/03/07 13:11:32;;;;;;;;;;;1.20;98.00;;;;;;4981133;28;19934;-80
2022/03/07 13:13:59;;;;;;;;;;;1.20;98.10;;;;;;4999011;28;19926;-80
2022/03/07 13:16:27;;;;;;;;;;;1.30;98.00;;;;;;4996219;28;20342;-80
2022/03/07 13:19:00;;;;;;;;;;;1.30;97.90;;;;;;4975586;28;20012;-80
2022/03/07 13:21:27;;;;;;;;;;;1.30;97.70;;;;;;4995990;28;19941;-80
2022/03/07 13:23:54;;;;;;;;;;;1.30;97.70;;;;;;4982331;28;19940;-80
2022/03/07 13:26:23;;;;;;;;;;;1.30;97.60;;;;;;4977072;28;20037;-80
2022/03/07 13:29:01;;;;;;;;;;;1.30;97.50;;;;;;4983470;28;20000;-81
2022/03/07 13:31:28;;;;;;;;;;;1.40;97.60;;;;;;4983374;28;19926;-80
2022/03/07 13:33:56;;;;;;;;;;;1.40;97.50;;;;;;4994630;28;19953;-80
2022/03/07 13:36:25;;;;;;;;;;;1.40;97.60;;;;;;4992300;28;19925;-80
2022/03/07 13:38:52;;;;;;;;;;;1.40;97.40;;;;;;4998165;28;20357;-80
2022/03/07 13:41:19;;;;;;;;;;;1.40;97.40;;;;;;4978072;28;20312;-80
2022/03/07 13:43:46;;;;;;;;;;;1.40;97.30;;;;;;4996228;28;19929;-81
2022/03/07 13:46:14;;;;;;;;;;;1.40;96.30;;;;;;4996552;28;20013;-80
2022/03/07 13:48:41;;;;;;;;;;;1.60;97.00;;;;;;4991178;28;20386;-80
2022/03/07 13:51:08;;;;;;;;;;;1.50;97.20;;;;;;4970642;28;19926;-80
2022/03/07 13:53:38;;;;;;;;;;;1.50;97.40;;;;;;4988562;28;19932;-80
2022/03/07 13:56:06;;;;;;;;;;;1.50;97.10;;;;;;4985505;28;19933;-80
2022/03/07 13:58:33;;;;;;;;;;;1.60;97.50;;;;;;4996024;28;19926;-80
2022/03/07 14:01:07;;;;;;;;;;;1.60;97.60;;;;;;4995826;28;19926;-81
2022/03/07 14:03:37;;;;;;;;;;;1.60;97.80;;;;;;4983019;28;20305;-81
2022/03/07 14:06:08;;;;;;;;;;;1.50;97.20;;;;;;4979674;28;19961;-81
2022/03/07 14:08:39;;;;;;;;;;;1.60;97.50;;;;;;4984956;28;19929;-80
2022/03/07 14:11:09;;;;;;;;;;;1.70;97.50;;;;;;4992662;28;20593;-81
2022/03/07 14:13:37;;;;;;;;;;;1.70;97.60;;;;;;4993739;28;19960;-81
2022/03/07 14:16:04;;;;;;;;;;;1.70;97.00;;;;;;4998461;28;19973;-81
2022/03/07 14:18:31;;;;;;;;;;;1.70;97.40;;;;;;4997083;28;19937;-80
2022/03/07 14:20:58;;;;;;;;;;;1.70;97.50;;;;;;4972044;28;19927;-81
2022/03/07 14:23:25;;;;;;;;;;;1.80;97.40;;;;;;4989737;28;20035;-81
2022/03/07 14:25:52;;;;;;;;;;;1.80;97.20;;;;;;4999633;28;19926;-81
2022/03/07 14:28:20;;;;;;;;;;;1.80;97.50;;;;;;4991399;28;20004;-80
2022/03/07 14:30:47;;;;;;;;;;;1.90;97.30;;;;;;4987591;28;19965;-81
2022/03/07 14:33:14;;;;;;;;;;;1.90;97.00;;;;;;4992007;28;19925;-82
2022/03/07 14:35:42;;;;;;;;;;;1.90;97.30;;;;;;4983259;28;19926;-81
2022/03/07 14:38:09;;;;;;;;;;;2.00;97.10;;;;;;4984432;28;19933;-81
2022/03/07 14:40:37;;;;;;;;;;;2.00;96.90;;;;;;4971520;28;20032;-81
2022/03/07 14:43:04;;;;;;;;;;;2.00;96.90;;;;;;4996165;28;19929;-81
2022/03/07 14:45:33;;;;;;;;;;;2.00;97.00;;;;;;4996946;28;19933;-81
2022/03/07 14:48:00;;;;;;;;;;;2.00;97.20;;;;;;4999981;28;19925;-82
2022/03/07 14:50:27;;;;;;;;;;;2.10;96.80;;;;;;4965607;28;19973;-81
2022/03/07 14:52:54;;;;;;;;;;;2.10;96.80;;;;;;4988834;28;20393;-81
2022/03/07 14:55:22;;;;;;;;;;;2.10;96.80;;;;;;4975724;28;20342;-81
2022/03/07 14:57:49;;;;;;;;;;;2.10;96.80;;;;;;4983066;28;19933;-81
2022/03/07 15:00:18;;;;;;;;;;;2.20;96.80;;;;;;4986266;28;19936;-82
2022/03/07 15:02:47;;;;;;;;;;;2.20;97.00;;;;;;4995994;28;20413;-81
2022/03/07 15:05:14;;;;;;;;;;;2.20;97.10;;;;;;4990876;28;19971;-82
2022/03/07 15:07:41;;;;;;;;;;;2.20;96.90;;;;;;4997506;28;20016;-80
2022/03/07 15:10:10;;;;;;;;;;;2.20;97.00;;;;;;4970831;28;19934;-81
2022/03/07 15:12:37;;;;;;;;;;;2.30;97.00;;;;;;4983418;28;19973;-82
2022/03/07 15:15:04;;;;;;;;;;;2.30;97.10;;;;;;4986730;28;19940;-81
2022/03/07 15:17:32;;;;;;;;;;;2.30;97.10;;;;;;4988171;28;19980;-81
2022/03/07 15:20:04;;;;;;;;;;;2.30;97.10;;;;;;4990298;28;20010;-81
2022/03/07 15:22:31;;;;;;;;;;;2.40;97.30;;;;;;4976331;28;19965;-81
2022/03/07 15:24:58;;;;;;;;;;;2.40;97.00;;;;;;4980951;28;20405;-81
2022/03/07 15:27:26;;;;;;;;;;;2.40;97.10;;;;;;4973459;28;19937;-81
2022/03/07 15:29:53;;;;;;;;;;;2.40;97.10;;;;;;4997160;28;19930;-81
2022/03/07 15:32:20;;;;;;;;;;;2.40;97.10;;;;;;4977175;28;19933;-81
2022/03/07 15:34:49;;;;;;;;;;;2.40;96.90;;;;;;4985990;28;19985;-81
2022/03/07 15:37:18;;;;;;;;;;;2.40;96.70;;;;;;5001830;28;19940;-81
2022/03/07 15:39:45;;;;;;;;;;;2.40;97.00;;;;;;5005258;28;19926;-81
2022/03/07 15:42:12;;;;;;;;;;;2.40;97.10;;;;;;4993101;28;19937;-81
2022/03/07 15:44:39;;;;;;;;;;;2.40;96.90;;;;;;4971849;28;21416;-81
2022/03/07 15:47:06;;;;;;;;;;;2.40;96.80;;;;;;4981152;28;19926;-81
2022/03/07 15:49:33;;;;;;;;;;;2.40;96.70;;;;;;4996326;28;20554;-81
2022/03/07 15:52:01;;;;;;;;;;;2.50;97.10;;;;;;4992638;28;19925;-82
2022/03/07 15:54:29;;;;;;;;;;;2.50;97.30;;;;;;4997909;28;21970;-81
2022/03/07 15:56:56;;;;;;;;;;;2.40;97.50;;;;;;4990094;28;19966;-81
2022/03/07 15:59:24;;;;;;;;;;;2.50;97.70;;;;;;4997074;28;19972;-81
2022/03/07 16:01:53;;;;;;;;;;;2.50;97.60;;;;;;4991629;28;19929;-80
2022/03/07 16:04:20;;;;;;;;;;;2.50;97.70;;;;;;4984970;28;20210;-81
2022/03/07 16:06:50;;;;;;;;;;;2.50;97.70;;;;;;4998044;28;19934;-81
2022/03/07 16:09:18;;;;;;;;;;;2.50;97.90;;;;;;5007078;28;19929;-82
2022/03/07 16:11:47;;;;;;;;;;;2.50;98.00;;;;;;4989837;28;19952;-79
2022/03/07 16:14:14;;;;;;;;;;;2.50;98.20;;;;;;4997835;28;19926;-79
2022/03/07 16:16:41;;;;;;;;;;;2.50;98.20;;;;;;5003306;28;20040;-79
2022/03/07 16:19:09;;;;;;;;;;;2.50;98.40;;;;;;4982649;28;19929;-82
2022/03/07 16:21:36;;;;;;;;;;;2.50;98.20;;;;;;4990234;28;19926;-81
2022/03/07 16:24:03;;;;;;;;;;;2.50;98.00;;;;;;4999896;28;19956;-81
2022/03/07 16:26:30;;;;;;;;;;;2.50;98.10;;;;;;4995814;28;19950;-81
2022/03/07 16:28:58;;;;;;;;;;;2.50;98.10;;;;;;5010184;28;19913;-81
2022/03/07 16:31:25;;;;;;;;;;;2.50;97.80;;;;;;5006153;28;19925;-79
2022/03/07 16:33:52;;;;;;;;;;;2.50;98.00;;;;;;4982005;28;19940;-79
2022/03/07 16:36:19;;;;;;;;;;;2.60;98.00;;;;;;4997367;28;19989;-79
2022/03/07 16:38:47;;;;;;;;;;;2.50;98.00;;;;;;5005089;28;20127;-80
2022/03/07 16:41:14;;;;;;;;;;;2.50;97.80;;;;;;5001742;28;19978;-79
2022/03/07 16:43:41;;;;;;;;;;;2.60;97.80;;;;;;5007326;28;20296;-80
2022/03/07 16:46:09;;;;;;;;;;;2.60;97.90;;;;;;4995950;28;20025;-80
2022/03/07 16:48:36;;;;;;;;;;;2.50;97.60;;;;;;4984155;28;19933;-79
2022/03/07 16:51:12;;;;;;;;;;;2.60;97.70;;;;;;4982197;28;19969;-79
2022/03/07 16:53:41;;;;;;;;;;;2.60;97.70;;;;;;4979776;28;20302;-81
2022/03/07 16:56:09;;;;;;;;;;;2.50;97.50;;;;;;4986655;28;19929;-80
2022/03/07 16:58:35;;;;;;;;;;;2.50;97.50;;;;;;4971094;28;20353;-83
2022/03/07 17:01:02;;;;;;;;;;;2.50;96.90;;;;;;4967348;28;20016;-84
2022/03/07 17:03:33;;;;;;;;;;;2.50;97.00;;;;;;4983484;28;19945;-84
2022/03/07 17:06:00;;;;;;;;;;;2.50;97.30;;;;;;4977156;28;19944;-80
2022/03/07 17:08:27;;;;;;;;;;;2.50;97.40;;;;;;4979702;28;19944;-80
2022/03/07 17:10:54;;;;;;;;;;;2.50;97.20;;;;;;4978500;28;19934;-80
2022/03/07 17:13:21;;;;;;;;;;;2.50;97.30;;;;;;4978873;28;19937;-82
2022/03/07 17:15:48;;;;;;;;;;;2.50;97.40;;;;;;4974466;28;19980;-80
2022/03/07 17:18:15;;;;;;;;;;;2.50;97.40;;;;;;4983354;28;19964;-80
2022/03/07 17:20:43;;;;;;;;;;;2.50;97.40;;;;;;4968557;28;19935;-80
2022/03/07 17:23:11;;;;;;;;;;;2.40;97.40;;;;;;4962646;28;20029;-82
2022/03/07 17:25:38;;;;;;;;;;;2.40;97.40;;;;;;4956462;28;20405;-80
2022/03/07 17:28:05;;;;;;;;;;;2.40;97.50;;;;;;4966274;28;19933;-80
2022/03/07 17:30:32;;;;;;;;;;;2.40;97.50;;;;;;4975856;28;19933;-79
2022/03/07 17:32:59;;;;;;;;;;;2.40;97.90;;;;;;4961434;28;19973;-79
2022/03/07 17:35:27;;;;;;;;;;;2.40;97.70;;;;;;4981257;28;20337;-79
2022/03/07 17:37:55;;;;;;;;;;;2.40;97.60;;;;;;4977645;28;19933;-79
2022/03/07 17:40:22;;;;;;;;;;;2.40;97.90;;;;;;4974327;28;20209;-79
2022/03/07 17:42:50;;;;;;;;;;;2.30;97.70;;;;;;4982356;28;20283;-80
2022/03/07 17:45:18;;;;;;;;;;;2.30;97.70;;;;;;4976993;28;20309;-80
2022/03/07 17:47:45;;;;;;;;;;;2.30;97.70;;;;;;4985086;28;19933;-80
2022/03/07 17:50:13;;;;;;;;;;;2.30;97.70;;;;;;4983359;28;19925;-80
2022/03/07 17:52:40;;;;;;;;;;;2.20;97.80;;;;;;4976961;28;20643;-80